sensor_id;sensor_type;location;lat;lon;timestamp;P1;durP1;ratioP1;P2;durP2;ratioP2
36815;SDS011;22760;51.910;4.474;2022-07-23T00:00:02;3.50;;;1.80;;
36815;SDS011;22760;51.910;4.474;2022-07-23T00:02:29;3.75;;;1.98;;
36815;SDS011;22760;51.910;4.474;2022-07-23T00:04:56;3.60;;;2.05;;
36815;SDS011;22760;51.910;4.474;2022-07-23T00:07:24;4.30;;;1.90;;
36815;SDS011;22760;51.910;4.474;2022-07-23T00:09:51;2.67;;;1.85;;
36815;SDS011;22760;51.910;4.474;2022-07-23T00:12:18;6.50;;;1.80;;
36815;SDS011;22760;51.910;4.474;2022-07-23T00:14:45;3.78;;;1.60;;
36815;SDS011;22760;51.910;4.474;2022-07-23T00:17:12;4.40;;;1.70;;
36815;SDS011;22760;51.910;4.474;2022-07-23T00:19:38;6.85;;;1.80;;
36815;SDS011;22760;51.910;4.474;2022-07-23T00:22:05;5.45;;;1.85;;
36815;SDS011;22760;51.910;4.474;2022-07-23T00:24:33;4.28;;;1.80;;
36815;SDS011;22760;51.910;4.474;2022-07-23T00:27:00;3.92;;;1.95;;
36815;SDS011;22760;51.910;4.474;2022-07-23T00:29:27;4.28;;;1.80;;
36815;SDS011;22760;51.910;4.474;2022-07-23T00:31:54;6.60;;;2.45;;
36815;SDS011;22760;51.910;4.474;2022-07-23T00:34:21;4.72;;;2.05;;
36815;SDS011;22760;51.910;4.474;2022-07-23T00:36:47;5.47;;;1.98;;
36815;SDS011;22760;51.910;4.474;2022-07-23T00:39:14;4.03;;;1.75;;
36815;SDS011;22760;51.910;4.474;2022-07-23T00:41:42;6.45;;;2.10;;
36815;SDS011;22760;51.910;4.474;2022-07-23T00:44:16;4.85;;;2.30;;
36815;SDS011;22760;51.910;4.474;2022-07-23T00:46:47;5.57;;;2.25;;
36815;SDS011;22760;51.910;4.474;2022-07-23T00:49:17;5.55;;;2.35;;
36815;SDS011;22760;51.910;4.474;2022-07-23T00:51:45;6.32;;;2.03;;
36815;SDS011;22760;51.910;4.474;2022-07-23T00:54:12;2.90;;;1.70;;
36815;SDS011;22760;51.910;4.474;2022-07-23T00:56:39;6.57;;;2.10;;
36815;SDS011;22760;51.910;4.474;2022-07-23T00:59:08;4.07;;;1.73;;
36815;SDS011;22760;51.910;4.474;2022-07-23T01:01:35;6.50;;;2.20;;
36815;SDS011;22760;51.910;4.474;2022-07-23T01:04:02;8.43;;;2.50;;
36815;SDS011;22760;51.910;4.474;2022-07-23T01:06:29;4.72;;;2.13;;
36815;SDS011;22760;51.910;4.474;2022-07-23T01:08:59;3.38;;;2.35;;
36815;SDS011;22760;51.910;4.474;2022-07-23T01:11:26;6.10;;;2.88;;
36815;SDS011;22760;51.910;4.474;2022-07-23T01:13:54;6.28;;;2.53;;
36815;SDS011;22760;51.910;4.474;2022-07-23T01:16:22;7.85;;;2.90;;
36815;SDS011;22760;51.910;4.474;2022-07-23T01:18:49;5.47;;;2.20;;
36815;SDS011;22760;51.910;4.474;2022-07-23T01:21:15;5.57;;;2.47;;
36815;SDS011;22760;51.910;4.474;2022-07-23T01:23:45;5.10;;;2.85;;
36815;SDS011;22760;51.910;4.474;2022-07-23T01:26:12;6.90;;;2.67;;
36815;SDS011;22760;51.910;4.474;2022-07-23T01:28:42;7.20;;;2.50;;
36815;SDS011;22760;51.910;4.474;2022-07-23T01:31:09;5.00;;;3.00;;
36815;SDS011;22760;51.910;4.474;2022-07-23T01:33:35;8.52;;;2.70;;
36815;SDS011;22760;51.910;4.474;2022-07-23T01:36:02;2.80;;;2.22;;
36815;SDS011;22760;51.910;4.474;2022-07-23T01:38:29;4.55;;;2.35;;
36815;SDS011;22760;51.910;4.474;2022-07-23T01:40:57;7.38;;;3.08;;
36815;SDS011;22760;51.910;4.474;2022-07-23T01:43:24;7.43;;;2.55;;
36815;SDS011;22760;51.910;4.474;2022-07-23T01:45:51;6.82;;;3.13;;
36815;SDS011;22760;51.910;4.474;2022-07-23T01:48:18;3.38;;;2.53;;
36815;SDS011;22760;51.910;4.474;2022-07-23T01:50:45;6.85;;;3.10;;
36815;SDS011;22760;51.910;4.474;2022-07-23T01:53:12;11.25;;;2.63;;
36815;SDS011;22760;51.910;4.474;2022-07-23T01:55:39;3.83;;;2.92;;
36815;SDS011;22760;51.910;4.474;2022-07-23T01:58:07;5.97;;;2.63;;
36815;SDS011;22760;51.910;4.474;2022-07-23T02:00:34;4.55;;;2.85;;
36815;SDS011;22760;51.910;4.474;2022-07-23T02:03:01;6.80;;;2.90;;
36815;SDS011;22760;51.910;4.474;2022-07-23T02:05:28;6.10;;;3.13;;
36815;SDS011;22760;51.910;4.474;2022-07-23T02:07:56;4.95;;;2.30;;
36815;SDS011;22760;51.910;4.474;2022-07-23T02:10:23;9.15;;;2.50;;
36815;SDS011;22760;51.910;4.474;2022-07-23T02:12:50;5.95;;;2.45;;
36815;SDS011;22760;51.910;4.474;2022-07-23T02:15:19;5.35;;;2.50;;
36815;SDS011;22760;51.910;4.474;2022-07-23T02:17:46;7.43;;;2.50;;
36815;SDS011;22760;51.910;4.474;2022-07-23T02:20:12;4.95;;;2.33;;
36815;SDS011;22760;51.910;4.474;2022-07-23T02:22:39;5.47;;;2.60;;
36815;SDS011;22760;51.910;4.474;2022-07-23T02:25:07;4.03;;;2.15;;
36815;SDS011;22760;51.910;4.474;2022-07-23T02:27:34;12.48;;;3.13;;
36815;SDS011;22760;51.910;4.474;2022-07-23T02:30:02;4.95;;;2.22;;
36815;SDS011;22760;51.910;4.474;2022-07-23T02:32:30;5.25;;;1.80;;
36815;SDS011;22760;51.910;4.474;2022-07-23T02:34:57;4.05;;;2.10;;
36815;SDS011;22760;51.910;4.474;2022-07-23T02:37:24;5.32;;;2.17;;
36815;SDS011;22760;51.910;4.474;2022-07-23T02:39:51;8.95;;;2.30;;
36815;SDS011;22760;51.910;4.474;2022-07-23T02:42:18;6.10;;;2.20;;
36815;SDS011;22760;51.910;4.474;2022-07-23T02:44:45;3.95;;;1.88;;
36815;SDS011;22760;51.910;4.474;2022-07-23T02:47:12;5.45;;;2.08;;
36815;SDS011;22760;51.910;4.474;2022-07-23T02:49:40;4.35;;;2.35;;
36815;SDS011;22760;51.910;4.474;2022-07-23T02:52:07;5.03;;;2.00;;
36815;SDS011;22760;51.910;4.474;2022-07-23T02:54:35;6.60;;;2.58;;
36815;SDS011;22760;51.910;4.474;2022-07-23T02:57:02;5.88;;;2.22;;
36815;SDS011;22760;51.910;4.474;2022-07-23T02:59:28;5.50;;;2.05;;
36815;SDS011;22760;51.910;4.474;2022-07-23T03:01:55;6.90;;;2.35;;
36815;SDS011;22760;51.910;4.474;2022-07-23T03:04:22;6.15;;;2.15;;
36815;SDS011;22760;51.910;4.474;2022-07-23T03:06:50;5.85;;;2.40;;
36815;SDS011;22760;51.910;4.474;2022-07-23T03:09:17;4.70;;;2.38;;
36815;SDS011;22760;51.910;4.474;2022-07-23T03:11:44;5.00;;;2.17;;
36815;SDS011;22760;51.910;4.474;2022-07-23T03:14:10;6.50;;;2.35;;
36815;SDS011;22760;51.910;4.474;2022-07-23T03:16:38;6.20;;;2.78;;
36815;SDS011;22760;51.910;4.474;2022-07-23T03:19:05;5.30;;;3.40;;
36815;SDS011;22760;51.910;4.474;2022-07-23T03:21:31;5.45;;;2.55;;
36815;SDS011;22760;51.910;4.474;2022-07-23T03:24:00;8.75;;;2.42;;
36815;SDS011;22760;51.910;4.474;2022-07-23T03:26:27;4.63;;;2.63;;
36815;SDS011;22760;51.910;4.474;2022-07-23T03:28:54;4.65;;;2.45;;
36815;SDS011;22760;51.910;4.474;2022-07-23T03:31:20;5.95;;;3.03;;
36815;SDS011;22760;51.910;4.474;2022-07-23T03:33:47;8.52;;;3.08;;
36815;SDS011;22760;51.910;4.474;2022-07-23T03:36:14;7.20;;;2.70;;
36815;SDS011;22760;51.910;4.474;2022-07-23T03:38:41;4.80;;;2.38;;
36815;SDS011;22760;51.910;4.474;2022-07-23T03:41:09;5.32;;;2.83;;
36815;SDS011;22760;51.910;4.474;2022-07-23T03:43:35;6.95;;;2.55;;
36815;SDS011;22760;51.910;4.474;2022-07-23T03:46:02;5.25;;;2.72;;
36815;SDS011;22760;51.910;4.474;2022-07-23T03:48:29;3.50;;;2.78;;
36815;SDS011;22760;51.910;4.474;2022-07-23T03:50:56;3.85;;;2.20;;
36815;SDS011;22760;51.910;4.474;2022-07-23T03:53:23;5.80;;;2.72;;
36815;SDS011;22760;51.910;4.474;2022-07-23T03:55:50;9.25;;;3.25;;
36815;SDS011;22760;51.910;4.474;2022-07-23T03:58:18;4.97;;;2.80;;
36815;SDS011;22760;51.910;4.474;2022-07-23T04:00:44;8.57;;;2.80;;
36815;SDS011;22760;51.910;4.474;2022-07-23T04:03:11;3.70;;;2.50;;
36815;SDS011;22760;51.910;4.474;2022-07-23T04:05:38;6.57;;;2.72;;
36815;SDS011;22760;51.910;4.474;2022-07-23T04:08:05;4.90;;;2.67;;
36815;SDS011;22760;51.910;4.474;2022-07-23T04:10:32;6.35;;;2.40;;
36815;SDS011;22760;51.910;4.474;2022-07-23T04:12:58;7.10;;;2.55;;
36815;SDS011;22760;51.910;4.474;2022-07-23T04:15:27;7.20;;;2.90;;
36815;SDS011;22760;51.910;4.474;2022-07-23T04:17:53;6.53;;;2.25;;
36815;SDS011;22760;51.910;4.474;2022-07-23T04:20:20;8.15;;;2.70;;
36815;SDS011;22760;51.910;4.474;2022-07-23T04:22:47;5.47;;;2.53;;
36815;SDS011;22760;51.910;4.474;2022-07-23T04:25:14;8.80;;;2.95;;
36815;SDS011;22760;51.910;4.474;2022-07-23T04:27:42;6.15;;;2.58;;
36815;SDS011;22760;51.910;4.474;2022-07-23T04:30:09;5.80;;;2.97;;
36815;SDS011;22760;51.910;4.474;2022-07-23T04:32:37;4.03;;;2.38;;
36815;SDS011;22760;51.910;4.474;2022-07-23T04:35:04;7.22;;;2.58;;
36815;SDS011;22760;51.910;4.474;2022-07-23T04:37:31;4.10;;;2.30;;
36815;SDS011;22760;51.910;4.474;2022-07-23T04:39:58;4.15;;;2.20;;
36815;SDS011;22760;51.910;4.474;2022-07-23T04:42:24;6.50;;;2.40;;
36815;SDS011;22760;51.910;4.474;2022-07-23T04:44:51;8.15;;;3.22;;
36815;SDS011;22760;51.910;4.474;2022-07-23T04:47:18;8.98;;;2.58;;
36815;SDS011;22760;51.910;4.474;2022-07-23T04:49:46;8.80;;;2.47;;
36815;SDS011;22760;51.910;4.474;2022-07-23T04:52:13;6.38;;;2.50;;
36815;SDS011;22760;51.910;4.474;2022-07-23T04:54:40;6.85;;;2.25;;
36815;SDS011;22760;51.910;4.474;2022-07-23T04:57:07;5.72;;;2.00;;
36815;SDS011;22760;51.910;4.474;2022-07-23T04:59:33;6.00;;;2.45;;
36815;SDS011;22760;51.910;4.474;2022-07-23T05:02:00;2.70;;;1.75;;
36815;SDS011;22760;51.910;4.474;2022-07-23T05:04:27;4.65;;;2.10;;
36815;SDS011;22760;51.910;4.474;2022-07-23T05:06:55;4.82;;;2.00;;
36815;SDS011;22760;51.910;4.474;2022-07-23T05:09:22;2.40;;;1.80;;
36815;SDS011;22760;51.910;4.474;2022-07-23T05:11:48;5.88;;;2.25;;
36815;SDS011;22760;51.910;4.474;2022-07-23T05:14:15;7.20;;;1.90;;
36815;SDS011;22760;51.910;4.474;2022-07-23T05:16:42;4.82;;;2.30;;
36815;SDS011;22760;51.910;4.474;2022-07-23T05:19:09;7.53;;;2.13;;
36815;SDS011;22760;51.910;4.474;2022-07-23T05:21:36;7.35;;;1.70;;
36815;SDS011;22760;51.910;4.474;2022-07-23T05:24:04;2.42;;;1.50;;
36815;SDS011;22760;51.910;4.474;2022-07-23T05:26:32;5.15;;;2.28;;
36815;SDS011;22760;51.910;4.474;2022-07-23T05:28:59;5.03;;;2.10;;
36815;SDS011;22760;51.910;4.474;2022-07-23T05:31:25;4.15;;;1.80;;
36815;SDS011;22760;51.910;4.474;2022-07-23T05:33:52;4.40;;;2.00;;
36815;SDS011;22760;51.910;4.474;2022-07-23T05:36:19;2.50;;;1.65;;
36815;SDS011;22760;51.910;4.474;2022-07-23T05:38:46;4.05;;;1.65;;
36815;SDS011;22760;51.910;4.474;2022-07-23T05:41:14;4.70;;;1.95;;
36815;SDS011;22760;51.910;4.474;2022-07-23T05:43:41;2.92;;;2.05;;
36815;SDS011;22760;51.910;4.474;2022-07-23T05:46:07;9.43;;;2.53;;
36815;SDS011;22760;51.910;4.474;2022-07-23T05:48:34;4.22;;;1.90;;
36815;SDS011;22760;51.910;4.474;2022-07-23T05:51:01;2.35;;;1.67;;
36815;SDS011;22760;51.910;4.474;2022-07-23T05:53:31;3.67;;;1.60;;
36815;SDS011;22760;51.910;4.474;2022-07-23T05:55:58;3.33;;;1.65;;
36815;SDS011;22760;51.910;4.474;2022-07-23T05:58:26;3.17;;;1.88;;
36815;SDS011;22760;51.910;4.474;2022-07-23T06:00:53;3.83;;;1.80;;
36815;SDS011;22760;51.910;4.474;2022-07-23T06:03:19;4.07;;;1.88;;
36815;SDS011;22760;51.910;4.474;2022-07-23T06:05:46;3.45;;;1.65;;
36815;SDS011;22760;51.910;4.474;2022-07-23T06:08:13;3.38;;;1.58;;
36815;SDS011;22760;51.910;4.474;2022-07-23T06:10:40;3.58;;;1.60;;
36815;SDS011;22760;51.910;4.474;2022-07-23T06:13:06;5.63;;;1.88;;
36815;SDS011;22760;51.910;4.474;2022-07-23T06:15:35;5.78;;;1.80;;
36815;SDS011;22760;51.910;4.474;2022-07-23T06:18:02;8.50;;;1.60;;
36815;SDS011;22760;51.910;4.474;2022-07-23T06:20:28;4.07;;;1.45;;
36815;SDS011;22760;51.910;4.474;2022-07-23T06:22:55;4.85;;;1.48;;
36815;SDS011;22760;51.910;4.474;2022-07-23T06:25:22;3.03;;;1.50;;
36815;SDS011;22760;51.910;4.474;2022-07-23T06:27:49;6.88;;;1.65;;
36815;SDS011;22760;51.910;4.474;2022-07-23T06:30:16;5.97;;;2.15;;
36815;SDS011;22760;51.910;4.474;2022-07-23T06:32:45;6.00;;;1.80;;
36815;SDS011;22760;51.910;4.474;2022-07-23T06:35:11;2.83;;;1.55;;
36815;SDS011;22760;51.910;4.474;2022-07-23T06:37:38;2.85;;;1.23;;
36815;SDS011;22760;51.910;4.474;2022-07-23T06:40:05;5.50;;;1.63;;
36815;SDS011;22760;51.910;4.474;2022-07-23T06:42:33;6.32;;;2.35;;
36815;SDS011;22760;51.910;4.474;2022-07-23T06:45:01;8.07;;;2.05;;
36815;SDS011;22760;51.910;4.474;2022-07-23T06:47:28;4.68;;;1.67;;
36815;SDS011;22760;51.910;4.474;2022-07-23T06:49:56;5.22;;;1.50;;
36815;SDS011;22760;51.910;4.474;2022-07-23T06:52:23;2.97;;;1.40;;
36815;SDS011;22760;51.910;4.474;2022-07-23T06:54:51;4.63;;;1.38;;
36815;SDS011;22760;51.910;4.474;2022-07-23T06:57:18;2.45;;;1.27;;
36815;SDS011;22760;51.910;4.474;2022-07-23T06:59:45;2.80;;;1.30;;
36815;SDS011;22760;51.910;4.474;2022-07-23T07:02:11;3.22;;;1.20;;
36815;SDS011;22760;51.910;4.474;2022-07-23T07:04:38;4.75;;;1.30;;
36815;SDS011;22760;51.910;4.474;2022-07-23T07:07:06;4.40;;;1.35;;
36815;SDS011;22760;51.910;4.474;2022-07-23T07:09:33;3.63;;;1.40;;
36815;SDS011;22760;51.910;4.474;2022-07-23T07:12:00;3.42;;;1.25;;
36815;SDS011;22760;51.910;4.474;2022-07-23T07:14:26;2.08;;;1.30;;
36815;SDS011;22760;51.910;4.474;2022-07-23T07:16:53;3.53;;;1.30;;
36815;SDS011;22760;51.910;4.474;2022-07-23T07:19:20;4.00;;;1.10;;
36815;SDS011;22760;51.910;4.474;2022-07-23T07:21:47;5.78;;;1.45;;
36815;SDS011;22760;51.910;4.474;2022-07-23T07:24:15;5.25;;;1.40;;
36815;SDS011;22760;51.910;4.474;2022-07-23T07:26:42;5.65;;;1.48;;
36815;SDS011;22760;51.910;4.474;2022-07-23T07:29:09;2.97;;;1.40;;
36815;SDS011;22760;51.910;4.474;2022-07-23T07:31:35;5.00;;;2.00;;
36815;SDS011;22760;51.910;4.474;2022-07-23T07:34:02;1.83;;;1.30;;
36815;SDS011;22760;51.910;4.474;2022-07-23T07:36:29;6.03;;;1.35;;
36815;SDS011;22760;51.910;4.474;2022-07-23T07:38:56;7.95;;;1.80;;
36815;SDS011;22760;51.910;4.474;2022-07-23T07:41:24;1.55;;;1.40;;
36815;SDS011;22760;51.910;4.474;2022-07-23T07:43:51;4.00;;;1.88;;
36815;SDS011;22760;51.910;4.474;2022-07-23T07:46:18;4.75;;;1.40;;
36815;SDS011;22760;51.910;4.474;2022-07-23T07:48:45;5.57;;;1.60;;
36815;SDS011;22760;51.910;4.474;2022-07-23T07:51:12;3.15;;;1.38;;
36815;SDS011;22760;51.910;4.474;2022-07-23T07:53:38;3.05;;;1.58;;
36815;SDS011;22760;51.910;4.474;2022-07-23T07:56:05;7.10;;;1.63;;
36815;SDS011;22760;51.910;4.474;2022-07-23T07:58:34;3.25;;;1.52;;
36815;SDS011;22760;51.910;4.474;2022-07-23T08:01:00;2.40;;;1.60;;
36815;SDS011;22760;51.910;4.474;2022-07-23T08:03:27;2.17;;;1.23;;
36815;SDS011;22760;51.910;4.474;2022-07-23T08:05:54;2.30;;;1.52;;
36815;SDS011;22760;51.910;4.474;2022-07-23T08:08:21;6.10;;;1.52;;
36815;SDS011;22760;51.910;4.474;2022-07-23T08:10:48;3.28;;;1.27;;
36815;SDS011;22760;51.910;4.474;2022-07-23T08:13:15;3.05;;;1.20;;
36815;SDS011;22760;51.910;4.474;2022-07-23T08:15:44;6.03;;;1.50;;
36815;SDS011;22760;51.910;4.474;2022-07-23T08:18:11;4.30;;;1.50;;
36815;SDS011;22760;51.910;4.474;2022-07-23T08:20:38;4.57;;;1.55;;
36815;SDS011;22760;51.910;4.474;2022-07-23T08:23:05;3.22;;;1.45;;
36815;SDS011;22760;51.910;4.474;2022-07-23T08:25:34;6.85;;;2.17;;
36815;SDS011;22760;51.910;4.474;2022-07-23T08:28:03;1.60;;;1.00;;
36815;SDS011;22760;51.910;4.474;2022-07-23T08:30:31;5.10;;;1.83;;
36815;SDS011;22760;51.910;4.474;2022-07-23T08:33:01;3.35;;;1.88;;
36815;SDS011;22760;51.910;4.474;2022-07-23T08:35:30;4.63;;;1.67;;
36815;SDS011;22760;51.910;4.474;2022-07-23T08:37:59;3.47;;;2.00;;
36815;SDS011;22760;51.910;4.474;2022-07-23T08:40:27;6.35;;;1.90;;
36815;SDS011;22760;51.910;4.474;2022-07-23T08:42:55;3.03;;;1.48;;
36815;SDS011;22760;51.910;4.474;2022-07-23T08:45:23;3.50;;;1.63;;
36815;SDS011;22760;51.910;4.474;2022-07-23T08:47:51;3.70;;;1.80;;
36815;SDS011;22760;51.910;4.474;2022-07-23T08:50:20;4.00;;;1.80;;
36815;SDS011;22760;51.910;4.474;2022-07-23T08:52:49;3.55;;;1.60;;
36815;SDS011;22760;51.910;4.474;2022-07-23T08:55:16;5.60;;;2.13;;
36815;SDS011;22760;51.910;4.474;2022-07-23T08:57:43;5.82;;;1.55;;
36815;SDS011;22760;51.910;4.474;2022-07-23T09:00:11;8.13;;;1.90;;
36815;SDS011;22760;51.910;4.474;2022-07-23T09:02:39;3.88;;;1.70;;
36815;SDS011;22760;51.910;4.474;2022-07-23T09:05:07;3.75;;;1.75;;
36815;SDS011;22760;51.910;4.474;2022-07-23T09:07:36;3.30;;;1.60;;
36815;SDS011;22760;51.910;4.474;2022-07-23T09:10:04;3.22;;;1.20;;
36815;SDS011;22760;51.910;4.474;2022-07-23T09:12:33;5.30;;;1.77;;
36815;SDS011;22760;51.910;4.474;2022-07-23T09:15:03;6.55;;;1.58;;
36815;SDS011;22760;51.910;4.474;2022-07-23T09:17:36;3.03;;;1.60;;
36815;SDS011;22760;51.910;4.474;2022-07-23T09:20:08;4.60;;;1.35;;
36815;SDS011;22760;51.910;4.474;2022-07-23T09:22:38;4.57;;;1.80;;
36815;SDS011;22760;51.910;4.474;2022-07-23T09:25:10;5.93;;;1.75;;
36815;SDS011;22760;51.910;4.474;2022-07-23T09:27:49;6.57;;;2.10;;
36815;SDS011;22760;51.910;4.474;2022-07-23T09:30:18;4.18;;;1.55;;
36815;SDS011;22760;51.910;4.474;2022-07-23T09:35:44;2.65;;;1.70;;
36815;SDS011;22760;51.910;4.474;2022-07-23T09:38:14;4.05;;;1.67;;
36815;SDS011;22760;51.910;4.474;2022-07-23T09:40:41;5.63;;;1.70;;
36815;SDS011;22760;51.910;4.474;2022-07-23T09:43:09;4.10;;;1.65;;
36815;SDS011;22760;51.910;4.474;2022-07-23T09:45:35;3.17;;;1.60;;
36815;SDS011;22760;51.910;4.474;2022-07-23T09:48:10;2.88;;;1.65;;
36815;SDS011;22760;51.910;4.474;2022-07-23T09:50:37;2.20;;;1.35;;
36815;SDS011;22760;51.910;4.474;2022-07-23T09:53:05;5.75;;;1.77;;
36815;SDS011;22760;51.910;4.474;2022-07-23T09:55:34;2.33;;;1.50;;
36815;SDS011;22760;51.910;4.474;2022-07-23T09:58:04;2.92;;;1.60;;
36815;SDS011;22760;51.910;4.474;2022-07-23T10:00:34;4.28;;;1.98;;
36815;SDS011;22760;51.910;4.474;2022-07-23T10:03:02;5.03;;;1.60;;
36815;SDS011;22760;51.910;4.474;2022-07-23T10:05:31;10.07;;;1.60;;
36815;SDS011;22760;51.910;4.474;2022-07-23T10:08:01;4.35;;;1.38;;
36815;SDS011;22760;51.910;4.474;2022-07-23T10:10:28;2.55;;;1.30;;
36815;SDS011;22760;51.910;4.474;2022-07-23T10:12:59;5.00;;;1.60;;
36815;SDS011;22760;51.910;4.474;2022-07-23T10:15:42;5.03;;;1.88;;
36815;SDS011;22760;51.910;4.474;2022-07-23T10:18:09;3.83;;;1.50;;
36815;SDS011;22760;51.910;4.474;2022-07-23T10:20:37;5.28;;;1.83;;
36815;SDS011;22760;51.910;4.474;2022-07-23T10:23:07;4.32;;;1.67;;
36815;SDS011;22760;51.910;4.474;2022-07-23T10:25:49;3.78;;;1.55;;
36815;SDS011;22760;51.910;4.474;2022-07-23T10:28:29;5.10;;;1.55;;
36815;SDS011;22760;51.910;4.474;2022-07-23T10:31:17;6.07;;;1.30;;
36815;SDS011;22760;51.910;4.474;2022-07-23T10:33:56;3.17;;;1.38;;
36815;SDS011;22760;51.910;4.474;2022-07-23T10:36:47;5.30;;;1.60;;
36815;SDS011;22760;51.910;4.474;2022-07-23T10:39:19;3.10;;;2.00;;
36815;SDS011;22760;51.910;4.474;2022-07-23T10:41:50;4.13;;;1.50;;
36815;SDS011;22760;51.910;4.474;2022-07-23T10:44:19;5.65;;;1.77;;
36815;SDS011;22760;51.910;4.474;2022-07-23T10:46:55;3.15;;;1.60;;
36815;SDS011;22760;51.910;4.474;2022-07-23T10:49:49;2.73;;;1.57;;
36815;SDS011;22760;51.910;4.474;2022-07-23T10:52:17;3.53;;;1.55;;
36815;SDS011;22760;51.910;4.474;2022-07-23T10:54:46;4.60;;;1.98;;
36815;SDS011;22760;51.910;4.474;2022-07-23T10:57:14;3.70;;;1.75;;
36815;SDS011;22760;51.910;4.474;2022-07-23T11:02:47;4.22;;;2.00;;
36815;SDS011;22760;51.910;4.474;2022-07-23T11:05:15;2.90;;;1.85;;
36815;SDS011;22760;51.910;4.474;2022-07-23T11:10:43;2.95;;;1.77;;
36815;SDS011;22760;51.910;4.474;2022-07-23T11:13:30;4.43;;;2.05;;
36815;SDS011;22760;51.910;4.474;2022-07-23T11:16:10;2.20;;;1.48;;
36815;SDS011;22760;51.910;4.474;2022-07-23T11:18:59;3.63;;;1.58;;
36815;SDS011;22760;51.910;4.474;2022-07-23T11:21:48;3.83;;;1.67;;
36815;SDS011;22760;51.910;4.474;2022-07-23T11:24:20;3.92;;;1.88;;
36815;SDS011;22760;51.910;4.474;2022-07-23T11:26:52;3.15;;;1.30;;
36815;SDS011;22760;51.910;4.474;2022-07-23T11:29:43;3.47;;;1.70;;
36815;SDS011;22760;51.910;4.474;2022-07-23T11:32:32;3.38;;;1.83;;
36815;SDS011;22760;51.910;4.474;2022-07-23T11:35:06;5.57;;;2.10;;
36815;SDS011;22760;51.910;4.474;2022-07-23T11:37:48;3.75;;;1.73;;
36815;SDS011;22760;51.910;4.474;2022-07-23T11:40:18;7.97;;;1.80;;
36815;SDS011;22760;51.910;4.474;2022-07-23T11:42:55;2.47;;;1.58;;
36815;SDS011;22760;51.910;4.474;2022-07-23T11:45:25;4.65;;;1.70;;
36815;SDS011;22760;51.910;4.474;2022-07-23T11:47:56;2.15;;;1.48;;
36815;SDS011;22760;51.910;4.474;2022-07-23T11:50:25;2.60;;;1.70;;
36815;SDS011;22760;51.910;4.474;2022-07-23T11:52:52;2.97;;;1.75;;
36815;SDS011;22760;51.910;4.474;2022-07-23T11:55:19;2.30;;;1.80;;
36815;SDS011;22760;51.910;4.474;2022-07-23T11:57:46;4.03;;;2.00;;
36815;SDS011;22760;51.910;4.474;2022-07-23T12:00:14;5.40;;;2.03;;
36815;SDS011;22760;51.910;4.474;2022-07-23T12:02:42;3.53;;;1.60;;
36815;SDS011;22760;51.910;4.474;2022-07-23T12:05:11;6.63;;;1.85;;
36815;SDS011;22760;51.910;4.474;2022-07-23T12:07:41;3.75;;;2.00;;
36815;SDS011;22760;51.910;4.474;2022-07-23T12:10:10;4.30;;;1.90;;
36815;SDS011;22760;51.910;4.474;2022-07-23T12:12:39;3.33;;;1.67;;
36815;SDS011;22760;51.910;4.474;2022-07-23T12:15:08;2.25;;;1.38;;
36815;SDS011;22760;51.910;4.474;2022-07-23T12:17:36;4.97;;;1.30;;
36815;SDS011;22760;51.910;4.474;2022-07-23T12:20:04;2.97;;;1.52;;
36815;SDS011;22760;51.910;4.474;2022-07-23T12:22:34;3.05;;;1.63;;
36815;SDS011;22760;51.910;4.474;2022-07-23T12:25:06;4.90;;;1.80;;
36815;SDS011;22760;51.910;4.474;2022-07-23T12:27:38;3.67;;;1.50;;
36815;SDS011;22760;51.910;4.474;2022-07-23T12:30:21;3.95;;;1.90;;
36815;SDS011;22760;51.910;4.474;2022-07-23T12:32:50;3.92;;;1.52;;
36815;SDS011;22760;51.910;4.474;2022-07-23T12:35:18;4.03;;;1.83;;
36815;SDS011;22760;51.910;4.474;2022-07-23T12:37:46;4.43;;;1.58;;
36815;SDS011;22760;51.910;4.474;2022-07-23T12:40:19;3.88;;;1.70;;
36815;SDS011;22760;51.910;4.474;2022-07-23T12:42:52;3.00;;;1.73;;
36815;SDS011;22760;51.910;4.474;2022-07-23T12:45:21;1.77;;;1.20;;
36815;SDS011;22760;51.910;4.474;2022-07-23T12:47:55;2.40;;;1.20;;
36815;SDS011;22760;51.910;4.474;2022-07-23T12:50:35;2.60;;;1.35;;
36815;SDS011;22760;51.910;4.474;2022-07-23T12:53:08;1.70;;;1.52;;
36815;SDS011;22760;51.910;4.474;2022-07-23T12:55:40;4.95;;;1.30;;
36815;SDS011;22760;51.910;4.474;2022-07-23T12:58:08;2.88;;;1.75;;
36815;SDS011;22760;51.910;4.474;2022-07-23T13:00:54;5.00;;;1.30;;
36815;SDS011;22760;51.910;4.474;2022-07-23T13:03:24;3.40;;;1.67;;
36815;SDS011;22760;51.910;4.474;2022-07-23T13:05:52;1.92;;;1.30;;
36815;SDS011;22760;51.910;4.474;2022-07-23T13:08:20;5.07;;;1.67;;
36815;SDS011;22760;51.910;4.474;2022-07-23T13:10:48;4.53;;;1.33;;
36815;SDS011;22760;51.910;4.474;2022-07-23T13:13:16;2.65;;;1.38;;
36815;SDS011;22760;51.910;4.474;2022-07-23T13:15:45;4.68;;;1.52;;
36815;SDS011;22760;51.910;4.474;2022-07-23T13:18:12;1.95;;;1.30;;
36815;SDS011;22760;51.910;4.474;2022-07-23T13:20:39;3.30;;;1.50;;
36815;SDS011;22760;51.910;4.474;2022-07-23T13:23:06;3.60;;;1.20;;
36815;SDS011;22760;51.910;4.474;2022-07-23T13:25:33;1.70;;;1.40;;
36815;SDS011;22760;51.910;4.474;2022-07-23T13:28:01;2.92;;;1.30;;
36815;SDS011;22760;51.910;4.474;2022-07-23T13:30:28;6.15;;;1.58;;
36815;SDS011;22760;51.910;4.474;2022-07-23T13:32:55;4.50;;;1.50;;
36815;SDS011;22760;51.910;4.474;2022-07-23T13:35:22;2.45;;;1.58;;
36815;SDS011;22760;51.910;4.474;2022-07-23T13:37:49;4.68;;;1.80;;
36815;SDS011;22760;51.910;4.474;2022-07-23T13:40:16;3.90;;;1.50;;
36815;SDS011;22760;51.910;4.474;2022-07-23T13:42:43;5.47;;;2.25;;
36815;SDS011;22760;51.910;4.474;2022-07-23T13:45:11;2.05;;;1.50;;
36815;SDS011;22760;51.910;4.474;2022-07-23T13:47:38;2.47;;;1.42;;
36815;SDS011;22760;51.910;4.474;2022-07-23T13:50:05;5.15;;;1.58;;
36815;SDS011;22760;51.910;4.474;2022-07-23T13:52:32;6.97;;;1.88;;
36815;SDS011;22760;51.910;4.474;2022-07-23T13:55:00;4.90;;;1.83;;
36815;SDS011;22760;51.910;4.474;2022-07-23T13:57:27;5.78;;;1.55;;
36815;SDS011;22760;51.910;4.474;2022-07-23T13:59:54;2.47;;;1.58;;
36815;SDS011;22760;51.910;4.474;2022-07-23T14:02:22;2.58;;;1.20;;
36815;SDS011;22760;51.910;4.474;2022-07-23T14:04:49;6.20;;;1.60;;
36815;SDS011;22760;51.910;4.474;2022-07-23T14:07:16;1.30;;;1.20;;
36815;SDS011;22760;51.910;4.474;2022-07-23T14:09:44;2.97;;;1.30;;
36815;SDS011;22760;51.910;4.474;2022-07-23T14:12:10;3.92;;;1.50;;
36815;SDS011;22760;51.910;4.474;2022-07-23T14:14:37;1.85;;;1.10;;
36815;SDS011;22760;51.910;4.474;2022-07-23T14:17:04;2.00;;;1.10;;
36815;SDS011;22760;51.910;4.474;2022-07-23T14:19:32;1.77;;;1.13;;
36815;SDS011;22760;51.910;4.474;2022-07-23T14:22:00;1.60;;;0.90;;
36815;SDS011;22760;51.910;4.474;2022-07-23T14:24:27;1.48;;;1.00;;
36815;SDS011;22760;51.910;4.474;2022-07-23T14:26:54;0.95;;;0.90;;
36815;SDS011;22760;51.910;4.474;2022-07-23T14:29:21;1.50;;;1.00;;
36815;SDS011;22760;51.910;4.474;2022-07-23T14:31:48;1.55;;;1.30;;
36815;SDS011;22760;51.910;4.474;2022-07-23T14:34:14;2.15;;;1.30;;
36815;SDS011;22760;51.910;4.474;2022-07-23T14:36:43;2.85;;;1.20;;
36815;SDS011;22760;51.910;4.474;2022-07-23T14:39:09;1.95;;;1.42;;
36815;SDS011;22760;51.910;4.474;2022-07-23T14:41:37;1.75;;;1.50;;
36815;SDS011;22760;51.910;4.474;2022-07-23T14:44:04;4.10;;;1.40;;
36815;SDS011;22760;51.910;4.474;2022-07-23T14:46:31;1.77;;;1.27;;
36815;SDS011;22760;51.910;4.474;2022-07-23T14:48:58;2.97;;;1.30;;
36815;SDS011;22760;51.910;4.474;2022-07-23T14:51:25;2.70;;;1.38;;
36815;SDS011;22760;51.910;4.474;2022-07-23T14:53:53;3.47;;;1.85;;
36815;SDS011;22760;51.910;4.474;2022-07-23T14:56:20;3.78;;;1.67;;
36815;SDS011;22760;51.910;4.474;2022-07-23T14:58:47;2.08;;;1.45;;
36815;SDS011;22760;51.910;4.474;2022-07-23T15:01:14;2.67;;;1.52;;
36815;SDS011;22760;51.910;4.474;2022-07-23T15:03:41;3.35;;;1.60;;